Time;durP1;ratioP1;P1;durP2;ratioP2;P2;SDS_P1;SDS_P2;PMS_P1;PMS_P2;Temp;Humidity;BMP_temperature;BMP_pressure;BME280_temperature;BME280_humidity;BME280_pressure;Samples;Min_cycle;Max_cycle;Signal;HPM_P1;HPM_P2
2021/05/05 00:02:04;;;;;;;6.82;1.55;;;6.70;99.90;;;5.11;84.34;99035.22;4871910;28;20466;-82
2021/05/05 00:04:27;;;;;;;2.97;1.42;;;6.70;99.90;;;5.08;84.32;99030.19;4872701;28;20127;-83
2021/05/05 00:06:50;;;;;;;2.35;1.10;;;6.60;99.90;;;5.09;84.92;99029.25;4870950;28;20116;-82
2021/05/05 00:09:13;;;;;;;6.70;1.13;;;6.80;99.90;;;5.27;83.96;99029.22;4871174;28;20093;-82
2021/05/05 00:11:36;;;;;;;2.90;1.80;;;6.80;99.90;;;5.28;83.91;99021.31;4873225;28;20488;-80
2021/05/05 00:13:59;;;;;;;7.72;1.52;;;6.90;99.90;;;5.37;83.31;99020.00;4872476;28;20085;-76
2021/05/05 00:16:22;;;;;;;6.20;1.30;;;7.00;99.90;;;5.43;82.97;99014.47;4872165;28;20101;-81
2021/05/05 00:18:45;;;;;;;2.22;1.30;;;7.00;99.90;;;5.48;82.50;99007.22;4873486;28;20116;-79
2021/05/05 00:21:09;;;;;;;2.97;1.67;;;;;;;5.37;83.41;99003.50;4868157;28;20105;-81
2021/05/05 00:23:32;;;;;;;1.77;1.30;;;6.90;99.90;;;5.35;83.28;99001.81;4854856;28;20091;-81
2021/05/05 00:25:55;;;;;;;6.45;1.35;;;6.90;99.90;;;5.30;83.99;99000.38;4874194;28;20092;-80
2021/05/05 00:28:17;;;;;;;4.00;1.63;;;6.80;99.90;;;5.28;84.12;99004.84;4874078;28;20090;-82
2021/05/05 00:30:40;;;;;;;3.38;1.15;;;7.00;99.90;;;5.47;82.56;99002.94;4874203;28;20077;-81
2021/05/05 00:33:03;;;;;;;3.25;1.45;;;7.00;99.90;;;5.42;83.00;98997.13;4877324;28;20094;-82
2021/05/05 00:35:27;;;;;;;2.78;1.35;;;7.00;99.90;;;5.40;83.06;98998.09;4875910;28;20094;-81
2021/05/05 00:37:50;;;;;;;1.95;1.30;;;7.00;99.90;;;5.43;83.28;99001.41;4877087;28;20097;-81
2021/05/05 00:40:14;;;;;;;3.38;1.40;;;7.00;99.90;;;5.47;83.09;98996.88;4875453;28;20089;-80
2021/05/05 00:42:38;;;;;;;1.67;1.35;;;7.10;99.90;;;5.55;82.72;98995.53;4873591;28;20559;-81
2021/05/05 00:45:04;;;;;;;4.07;1.42;;;7.10;99.90;;;5.56;82.45;98993.78;4877217;28;20085;-80
2021/05/05 00:47:27;;;;;;;2.40;1.42;;;7.20;99.90;;;5.63;82.21;99004.72;4877570;28;20102;-81
2021/05/05 00:49:50;;;;;;;3.13;1.27;;;7.20;99.90;;;5.71;81.59;99000.78;4875088;28;20088;-83
2021/05/05 00:52:13;;;;;;;5.90;1.42;;;7.20;99.90;;;5.69;82.12;98993.94;4872875;28;20083;-82
2021/05/05 00:54:36;;;;;;;3.05;1.33;;;7.30;99.90;;;5.81;81.12;98995.91;4875562;28;20092;-82
2021/05/05 00:57:00;;;;;;;5.25;1.13;;;7.40;99.90;;;5.85;81.13;98988.72;4877869;28;20245;-78
2021/05/05 00:59:23;;;;;;;2.42;1.40;;;7.40;99.90;;;5.86;80.59;98996.50;4876099;28;20081;-80
2021/05/05 01:01:46;;;;;;;4.13;1.83;;;7.40;99.90;;;5.89;80.87;98991.09;4874096;28;20137;-78
2021/05/05 01:04:10;;;;;;;2.13;1.38;;;7.40;99.90;;;5.91;80.37;98989.22;4873558;28;20086;-77
2021/05/05 01:06:33;;;;;;;4.72;1.70;;;7.50;99.90;;;6.00;79.79;98987.06;4877283;28;20085;-82
2021/05/05 01:08:57;;;;;;;5.85;1.58;;;7.40;99.90;;;5.96;80.40;98981.16;4875742;28;20078;-81
2021/05/05 01:11:20;;;;;;;4.82;1.83;;;7.50;99.90;;;5.95;80.35;98982.94;4877843;28;20097;-82
2021/05/05 01:13:43;;;;;;;3.38;1.90;;;7.40;99.90;;;5.97;80.75;98984.66;4874574;28;20081;-82
2021/05/05 01:16:06;;;;;;;2.95;1.70;;;7.60;99.90;;;6.04;80.54;98983.38;4874875;28;20094;-83
2021/05/05 01:18:29;;;;;;;3.17;2.00;;;7.60;99.90;;;6.02;80.89;98985.22;4873799;28;20089;-81
2021/05/05 01:20:57;;;;;;;7.65;1.90;;;;;;;5.98;80.48;98994.16;4879988;28;20093;-83
2021/05/05 01:23:20;;;;;;;2.25;2.03;;;7.40;99.90;;;5.80;82.07;98991.59;4874032;28;20135;-83
2021/05/05 01:25:42;;;;;;;3.05;1.77;;;7.30;99.90;;;5.78;81.30;98990.00;4875755;28;20085;-82
2021/05/05 01:28:06;;;;;;;3.35;2.40;;;;;;;5.82;81.00;98991.53;4873842;28;20088;-76
2021/05/05 01:30:29;;;;;;;5.35;1.88;;;7.40;99.90;;;5.89;80.13;98987.63;4878199;28;20086;-82
2021/05/05 01:32:52;;;;;;;2.63;2.03;;;7.40;99.90;;;5.76;81.36;98990.91;4877757;28;20097;-80
2021/05/05 01:35:18;;;;;;;3.10;2.00;;;7.20;99.90;;;5.72;80.84;98985.94;4877244;28;20092;-83
2021/05/05 01:37:43;;;;;;;7.20;2.38;;;7.20;99.90;;;5.63;81.47;98986.44;4872123;28;20079;-83
2021/05/05 01:40:08;;;;;;;3.45;2.22;;;7.20;99.90;;;5.63;81.68;98982.06;4873440;28;20564;-82
2021/05/05 01:42:31;;;;;;;2.63;1.90;;;7.20;99.90;;;5.73;80.87;98990.25;4876238;28;20139;-83
2021/05/05 01:44:54;;;;;;;2.60;2.10;;;;;;;5.67;81.28;98983.59;4873689;28;20081;-82
2021/05/05 01:47:17;;;;;;;4.72;2.25;;;7.30;99.90;;;5.72;81.28;98983.31;4876337;28;23107;-83
2021/05/05 01:49:44;;;;;;;6.07;2.53;;;7.30;99.90;;;5.72;81.85;98978.97;4874300;28;20086;-84
2021/05/05 01:52:08;;;;;;;5.57;2.15;;;7.30;99.90;;;5.78;81.04;99001.28;4874320;28;20082;-79
2021/05/05 01:54:35;;;;;;;4.10;2.53;;;7.30;99.90;;;5.77;81.59;98983.94;4874700;28;20085;-82
2021/05/05 01:57:24;;;;;;;2.67;2.13;;;7.30;99.90;;;5.82;81.41;98983.69;4874154;28;20552;-85
2021/05/05 01:59:48;;;;;;;4.88;2.47;;;7.30;99.90;;;5.78;82.04;98977.78;4872003;28;20112;-82
2021/05/05 02:02:11;;;;;;;3.58;2.30;;;;;;;5.75;82.85;98977.97;4874773;28;20082;-82
2021/05/05 02:04:34;;;;;;;7.78;2.65;;;7.20;99.90;;;5.74;82.86;98976.25;4871882;28;20453;-82
2021/05/05 02:06:57;;;;;;;3.97;2.60;;;7.30;99.90;;;5.81;82.46;98969.78;4856144;28;20097;-80
2021/05/05 02:09:20;;;;;;;4.63;3.05;;;7.30;99.90;;;5.78;82.60;98972.56;4875050;28;20085;-83
2021/05/05 02:11:43;;;;;;;11.90;3.38;;;7.30;99.90;;;5.80;82.67;98969.88;4875139;28;20465;-83
2021/05/05 02:14:06;;;;;;;3.53;2.65;;;7.40;99.90;;;5.83;82.33;98960.09;4872165;28;20140;-81
2021/05/05 02:16:29;;;;;;;4.70;2.42;;;7.40;99.90;;;5.89;81.59;98966.75;4871785;28;20082;-78
2021/05/05 02:18:52;;;;;;;4.63;2.63;;;7.40;99.90;;;5.86;82.11;98967.75;4873499;28;20083;-78
2021/05/05 02:21:14;;;;;;;4.05;2.85;;;7.30;99.90;;;5.83;82.38;98965.31;4877091;28;20094;-85
2021/05/05 02:23:38;;;;;;;4.15;2.30;;;7.40;99.90;;;5.85;81.81;98958.25;4875504;28;20259;-80
2021/05/05 02:26:02;;;;;;;4.57;2.55;;;8.20;99.90;;;5.83;82.17;98960.09;4870554;28;20092;-83
2021/05/05 02:28:26;;;;;;;4.55;2.70;;;7.30;99.90;;;5.82;82.04;98963.63;4872251;28;20097;-80
2021/05/05 02:30:49;;;;;;;4.97;2.70;;;7.30;99.90;;;5.80;82.01;98957.63;4876601;28;20090;-82
2021/05/05 02:33:12;;;;;;;4.30;2.53;;;7.30;99.90;;;5.77;82.02;98955.22;4872722;28;20094;-82
2021/05/05 02:35:35;;;;;;;4.93;2.60;;;;;;;5.73;82.18;98954.53;4875396;28;20101;-82
2021/05/05 02:37:58;;;;;;;4.55;2.63;;;7.20;99.90;;;5.68;82.51;98955.69;4873876;28;20559;-83
2021/05/05 02:40:20;;;;;;;5.25;2.90;;;7.20;99.90;;;5.70;82.90;98948.63;4872695;28;20456;-81
2021/05/05 02:42:43;;;;;;;3.85;2.38;;;7.20;99.90;;;5.66;82.66;98940.13;4874684;28;20127;-83
2021/05/05 02:45:10;;;;;;;4.15;2.63;;;7.20;99.90;;;5.70;82.24;98938.16;4874030;28;20100;-83
2021/05/05 02:47:33;;;;;;;6.15;3.13;;;7.20;99.90;;;5.62;82.87;98943.00;4872965;28;20163;-82
2021/05/05 02:49:56;;;;;;;3.95;2.72;;;7.10;99.90;;;5.59;84.05;98930.09;4870904;28;20088;-81
2021/05/05 02:52:19;;;;;;;4.18;2.67;;;8.60;99.90;;;5.67;82.73;98956.63;4870152;28;20313;-76
2021/05/05 02:54:42;;;;;;;5.97;3.15;;;7.20;99.90;;;5.63;83.81;98944.66;4875314;28;20093;-81
2021/05/05 02:57:06;;;;;;;5.00;3.00;;;7.20;99.90;;;5.72;82.89;98942.41;4873022;28;20093;-82
2021/05/05 02:59:29;;;;;;;6.15;3.13;;;7.30;99.90;;;5.72;82.55;98938.94;4872565;28;20125;-82
2021/05/05 03:01:53;;;;;;;4.78;3.20;;;7.20;99.90;;;5.73;82.89;98938.03;4873151;28;20113;-83
2021/05/05 03:04:16;;;;;;;6.85;2.90;;;7.30;99.90;;;5.82;82.00;98944.50;4873122;28;20090;-82
2021/05/05 03:06:38;;;;;;;2.97;2.58;;;7.30;99.90;;;5.78;82.68;98941.22;4875725;28;20085;-83
2021/05/05 03:09:04;;;;;;;6.43;3.42;;;;;;;5.78;82.73;98930.75;4869788;28;20552;-81
2021/05/05 03:11:27;;;;;;;4.95;3.20;;;7.30;99.90;;;5.76;83.18;98935.22;4871922;28;20094;-83
2021/05/05 03:13:50;;;;;;;6.82;3.45;;;7.20;99.90;;;5.67;83.41;98930.53;4869944;28;20081;-81
2021/05/05 03:16:13;;;;;;;6.57;3.28;;;7.20;99.90;;;5.68;83.41;98920.00;4872677;28;20102;-82
2021/05/05 03:18:37;;;;;;;5.07;3.78;;;;;;;5.65;83.65;98921.94;4875872;28;20116;-86
2021/05/05 03:21:00;;;;;;;4.50;3.38;;;7.20;99.90;;;5.63;83.33;98919.41;4872753;28;20096;-79
2021/05/05 03:23:23;;;;;;;5.28;3.47;;;7.10;99.90;;;5.52;84.27;98930.44;4870785;28;20176;-84
2021/05/05 03:25:45;;;;;;;3.17;2.42;;;7.10;99.90;;;5.57;83.53;98922.34;4878310;28;20090;-80
2021/05/05 03:28:09;;;;;;;5.28;3.15;;;;;;;5.55;84.01;98919.00;4871187;28;20113;-83
2021/05/05 03:30:32;;;;;;;8.20;4.10;;;7.00;99.90;;;5.49;84.19;98914.94;4874694;28;20095;-81
2021/05/05 03:32:55;;;;;;;7.65;3.53;;;7.00;99.90;;;5.51;84.03;98918.31;4874633;28;20093;-81
2021/05/05 03:35:18;;;;;;;4.60;2.05;;;7.10;99.90;;;5.62;81.81;98922.94;4870033;28;20112;-80
2021/05/05 03:37:41;;;;;;;3.85;2.40;;;7.20;99.90;;;5.68;81.71;98927.84;4871572;28;20101;-82
2021/05/05 03:40:07;;;;;;;3.22;2.20;;;7.20;99.90;;;5.66;80.68;98915.75;4872638;28;20104;-83
2021/05/05 03:42:31;;;;;;;3.72;1.85;;;7.20;99.90;;;5.67;80.23;98920.06;4874176;28;20092;-78
2021/05/05 03:44:54;;;;;;;2.38;1.42;;;7.20;99.90;;;5.70;79.65;98914.66;4874100;28;20114;-83
2021/05/05 03:47:17;;;;;;;1.95;0.93;;;7.20;99.90;;;5.73;76.80;98915.34;4869402;28;21639;-81
2021/05/05 03:49:40;;;;;;;4.85;1.40;;;7.40;99.90;;;5.92;75.89;98925.63;4871560;28;20108;-85
2021/05/05 03:52:05;;;;;;;1.77;1.13;;;7.50;99.90;;;5.98;76.06;98931.44;4872757;28;20113;-84
2021/05/05 03:54:28;;;;;;;4.80;0.90;;;7.50;99.90;;;5.98;76.14;98927.06;4871579;28;20113;-82
2021/05/05 03:56:51;;;;;;;0.88;0.55;;;7.50;99.90;;;6.00;74.99;98921.75;4869117;28;20105;-82
2021/05/05 03:59:14;;;;;;;3.45;0.60;;;7.50;99.90;;;6.05;74.59;98932.81;4870929;28;20104;-83
2021/05/05 04:01:37;;;;;;;3.40;0.73;;;7.50;99.90;;;6.01;74.13;98929.50;4870391;28;20089;-80
2021/05/05 04:04:00;;;;;;;0.52;0.30;;;;;;;6.04;73.12;98928.50;4873864;28;20085;-82
2021/05/05 04:06:23;;;;;;;3.45;0.60;;;7.60;99.90;;;6.07;73.48;98930.91;4874399;28;20093;-84
2021/05/05 04:08:47;;;;;;;3.55;0.43;;;7.60;99.90;;;6.07;72.87;98939.63;4871207;28;20089;-83
2021/05/05 04:11:09;;;;;;;7.22;1.25;;;7.60;99.90;;;6.08;72.82;98930.00;4872300;28;20136;-83
2021/05/05 04:13:33;;;;;;;0.98;0.20;;;7.60;99.90;;;6.09;72.35;98940.38;4872236;28;20525;-82
2021/05/05 04:15:56;;;;;;;0.20;0.13;;;7.60;99.90;;;6.14;72.43;98938.34;4874057;28;20536;-82
2021/05/05 04:18:19;;;;;;;0.75;0.10;;;7.60;99.90;;;6.18;71.09;98933.78;4871142;28;20461;-81
2021/05/05 04:20:42;;;;;;;3.53;0.52;;;7.70;99.90;;;6.18;72.97;98943.38;4873108;28;20105;-82
2021/05/05 04:23:06;;;;;;;1.95;0.50;;;7.60;99.90;;;6.09;74.00;98939.53;4872421;28;20121;-83
2021/05/05 04:25:30;;;;;;;1.23;0.40;;;7.60;99.90;;;6.07;73.50;98951.81;4872118;28;20430;-79
2021/05/05 04:27:53;;;;;;;1.83;0.65;;;7.50;99.90;;;6.05;73.63;98948.50;4872076;28;20578;-79
2021/05/05 04:30:19;;;;;;;0.75;0.40;;;7.60;99.90;;;6.08;73.84;98937.84;4872648;28;20132;-82
2021/05/05 04:32:42;;;;;;;2.15;0.40;;;7.50;99.90;;;6.03;73.99;98938.13;4871283;28;20092;-81
2021/05/05 04:35:06;;;;;;;1.95;0.45;;;7.50;99.90;;;6.00;74.38;98938.28;4871825;28;20086;-79
2021/05/05 04:37:29;;;;;;;3.05;0.70;;;7.50;99.90;;;6.03;73.85;98932.88;4871690;28;20497;-85
2021/05/05 04:39:52;;;;;;;2.55;0.63;;;7.50;99.90;;;6.05;74.77;98941.47;4868859;28;20092;-78
2021/05/05 04:42:15;;;;;;;3.60;0.80;;;7.50;99.90;;;6.05;75.57;98927.59;4873240;28;20421;-84
2021/05/05 04:44:39;;;;;;;1.90;0.60;;;7.50;99.90;;;6.05;74.90;98938.03;4873063;28;20089;-81
2021/05/05 04:47:02;;;;;;;2.92;0.70;;;7.50;99.90;;;6.05;75.31;98943.25;4871455;28;20093;-81
2021/05/05 04:49:25;;;;;;;1.40;0.35;;;7.60;99.90;;;6.16;73.69;98930.44;4868697;28;20093;-84
2021/05/05 04:51:47;;;;;;;3.00;0.65;;;7.70;99.90;;;6.20;73.77;98939.78;4875143;28;20088;-82
2021/05/05 04:54:10;;;;;;;3.92;0.93;;;7.70;99.90;;;6.19;75.15;98939.84;4871083;28;20100;-85
2021/05/05 04:56:33;;;;;;;1.90;0.70;;;7.70;99.90;;;6.19;75.10;98929.41;4873425;28;20082;-82
2021/05/05 04:58:57;;;;;;;1.10;0.65;;;7.70;99.90;;;6.20;74.76;98941.53;4869749;28;20490;-81
2021/05/05 05:01:20;;;;;;;1.42;0.70;;;7.70;99.90;;;6.20;74.76;98939.78;4872088;28;20176;-83
2021/05/05 05:03:42;;;;;;;2.83;0.70;;;7.70;99.90;;;6.18;74.88;98933.78;4872760;28;20533;-80
2021/05/05 05:06:06;;;;;;;1.13;0.70;;;;;;;6.22;74.75;98934.44;4873830;28;20093;-84
2021/05/05 05:08:28;;;;;;;1.15;0.68;;;7.70;99.90;;;6.23;75.97;98941.38;4870996;28;20093;-81
2021/05/05 05:10:52;;;;;;;2.72;0.63;;;7.70;99.90;;;6.27;74.77;98951.56;4871333;28;20085;-80
2021/05/05 05:13:14;;;;;;;1.92;0.90;;;7.70;99.90;;;6.28;76.01;98937.53;4875595;28;20085;-82
2021/05/05 05:15:38;;;;;;;5.00;1.38;;;7.70;99.90;;;6.29;76.64;98949.69;4874675;28;20442;-81
2021/05/05 05:18:01;;;;;;;1.40;0.80;;;7.70;99.90;;;6.28;76.13;98940.16;4877914;28;20143;-83
2021/05/05 05:20:24;;;;;;;2.50;0.93;;;7.70;99.90;;;6.28;76.20;98936.72;4874853;28;20090;-77
2021/05/05 05:22:47;;;;;;;3.90;1.00;;;7.70;99.90;;;6.25;77.04;98936.91;4874579;28;20131;-82
2021/05/05 05:25:12;;;;;;;5.57;1.05;;;7.70;99.90;;;6.23;75.95;98939.59;4875072;28;20484;-82
2021/05/05 05:27:35;;;;;;;2.25;1.10;;;7.70;99.90;;;6.25;76.44;98940.34;4874051;28;20111;-82
2021/05/05 05:29:58;;;;;;;1.15;0.88;;;7.70;99.90;;;6.25;75.78;98949.97;4873959;28;20135;-81
2021/05/05 05:32:22;;;;;;;1.13;0.80;;;7.70;99.90;;;6.24;75.60;98946.50;4876987;28;20089;-83
2021/05/05 05:34:45;;;;;;;2.17;1.10;;;7.70;99.90;;;6.22;75.82;98950.97;4872017;28;20100;-82
2021/05/05 05:37:08;;;;;;;1.95;0.73;;;;;;;6.22;75.85;98950.13;4873106;28;20092;-77
2021/05/05 05:39:31;;;;;;;2.22;0.90;;;7.60;99.90;;;6.22;75.44;98947.50;4868036;28;20082;-84
2021/05/05 05:41:54;;;;;;;3.80;0.70;;;7.70;99.90;;;6.20;75.80;98957.19;4876299;28;20092;-83
2021/05/05 05:44:16;;;;;;;1.10;0.80;;;7.70;99.90;;;6.21;74.67;98948.44;4866197;28;20081;-83
2021/05/05 05:46:39;;;;;;;1.00;0.68;;;7.70;99.90;;;6.25;75.02;98957.81;4895931;28;20089;-85
2021/05/05 05:49:03;;;;;;;3.08;0.77;;;7.80;99.90;;;6.32;73.95;98952.13;4872772;28;20092;-81
2021/05/05 05:51:26;;;;;;;2.67;0.80;;;7.90;99.90;;;6.39;73.04;98942.16;4876065;28;20452;-82
2021/05/05 05:53:49;;;;;;;2.20;0.90;;;7.80;99.90;;;6.35;73.98;98954.56;4877323;28;20096;-83
2021/05/05 05:56:13;;;;;;;1.50;0.38;;;;;;;6.33;74.68;98956.44;4874464;28;20144;-84
2021/05/05 05:58:36;;;;;;;2.35;0.60;;;7.80;99.90;;;6.32;75.08;98956.50;4874913;28;20109;-83
2021/05/05 06:00:59;;;;;;;1.35;0.60;;;7.80;99.90;;;6.31;74.83;98950.44;4873637;28;20476;-83
2021/05/05 06:03:21;;;;;;;1.48;0.65;;;7.80;99.90;;;6.32;74.68;98954.72;4876789;28;20089;-83
2021/05/05 06:05:45;;;;;;;4.50;0.80;;;7.80;99.90;;;6.34;74.94;98946.81;4875657;28;20457;-82
2021/05/05 06:08:09;;;;;;;1.75;0.98;;;7.80;99.90;;;6.32;75.19;98959.13;4873017;28;20085;-84
2021/05/05 06:10:32;;;;;;;3.92;0.80;;;7.80;99.90;;;6.34;74.95;98960.72;4871819;28;20566;-81
2021/05/05 06:12:54;;;;;;;1.35;0.77;;;7.80;99.90;;;6.34;75.04;98963.34;4874428;28;20559;-82
2021/05/05 06:15:17;;;;;;;1.77;1.23;;;7.80;99.90;;;6.38;75.85;98961.41;4877075;28;20084;-81
2021/05/05 06:17:40;;;;;;;4.47;1.27;;;7.80;99.90;;;6.42;75.58;98969.91;4874036;28;20080;-84
2021/05/05 06:20:06;;;;;;;1.70;1.30;;;7.80;99.90;;;6.36;76.21;98966.69;4872409;28;20147;-83
2021/05/05 06:22:29;;;;;;;4.10;1.35;;;7.80;99.90;;;6.39;76.34;98957.84;4872442;28;20440;-82
2021/05/05 06:24:52;;;;;;;2.05;0.93;;;7.80;99.90;;;6.39;76.01;98962.22;4872952;28;20089;-81
2021/05/05 06:27:15;;;;;;;4.35;1.73;;;7.80;99.90;;;6.37;77.25;98967.53;4873150;28;20096;-81
2021/05/05 06:29:38;;;;;;;2.38;1.20;;;7.80;99.90;;;6.31;76.62;98966.13;4876352;28;20093;-81
2021/05/05 06:32:01;;;;;;;3.88;1.52;;;7.80;99.90;;;6.30;76.07;98968.81;4873281;28;20479;-79
2021/05/05 06:34:23;;;;;;;4.50;1.25;;;7.80;99.90;;;6.29;75.89;98978.44;4872688;28;20117;-81
2021/05/05 06:36:46;;;;;;;3.50;1.33;;;7.70;99.90;;;6.27;76.93;98977.69;4873293;28;20093;-77
2021/05/05 06:39:11;;;;;;;2.30;0.80;;;7.80;99.90;;;6.29;75.41;98978.44;4874049;28;20585;-82
2021/05/05 06:41:36;;;;;;;4.43;0.82;;;7.70;99.90;;;6.31;74.40;98987.03;4875596;28;20500;-82
2021/05/05 06:43:59;;;;;;;1.77;0.90;;;7.80;99.90;;;6.33;74.68;98979.13;4874527;28;20131;-77
2021/05/05 06:46:22;;;;;;;2.30;0.70;;;7.80;99.90;;;6.37;73.34;98985.84;4873027;28;20163;-83
2021/05/05 06:48:45;;;;;;;2.17;0.60;;;7.90;99.90;;;6.42;73.53;98983.00;4873454;28;20120;-82
2021/05/05 06:51:07;;;;;;;2.13;0.50;;;7.80;99.90;;;6.39;72.62;98977.91;4873427;28;20529;-80
2021/05/05 06:53:30;;;;;;;1.15;0.50;;;7.80;99.90;;;6.36;73.74;98979.78;4874434;28;20104;-81
2021/05/05 06:55:54;;;;;;;5.70;1.00;;;7.80;99.90;;;6.37;73.41;98985.84;4873701;28;20085;-84
2021/05/05 06:58:19;;;;;;;5.00;0.63;;;7.80;99.90;;;6.38;73.31;98989.31;4873212;28;20092;-86
2021/05/05 07:00:42;;;;;;;7.97;0.60;;;7.80;99.90;;;6.42;71.85;98983.00;4871108;28;20193;-81
2021/05/05 07:03:05;;;;;;;4.18;0.60;;;;;;;6.44;72.23;98988.97;4874169;28;20111;-82
2021/05/05 07:05:28;;;;;;;1.83;0.73;;;7.90;99.90;;;6.46;72.22;98992.34;4875216;28;20528;-81
2021/05/05 07:07:52;;;;;;;4.10;0.52;;;8.00;99.90;;;6.58;69.83;98989.84;4872913;28;20093;-82
2021/05/05 07:10:15;;;;;;;4.15;0.60;;;8.10;99.90;;;6.68;70.29;98989.31;4872415;28;20460;-81
2021/05/05 07:12:39;;;;;;;5.43;0.52;;;8.10;99.90;;;6.73;70.20;98987.28;4871723;28;20098;-84
2021/05/05 07:15:03;;;;;;;1.63;0.50;;;8.10;99.90;;;6.75;70.55;98991.47;4876090;28;20093;-77
2021/05/05 07:17:26;;;;;;;1.25;0.50;;;8.10;99.90;;;6.68;72.03;98990.16;4869053;28;21100;-82
2021/05/05 07:19:50;;;;;;;1.98;0.50;;;8.00;99.90;;;6.56;71.51;98990.84;4869350;28;20096;-83
2021/05/05 07:22:13;;;;;;;1.02;0.40;;;7.90;99.90;;;6.46;73.09;98989.72;4871370;28;20078;-81
2021/05/05 07:24:35;;;;;;;0.52;0.40;;;7.80;99.90;;;6.40;74.16;98993.53;4870442;28;20168;-83
2021/05/05 07:26:58;;;;;;;3.65;0.77;;;7.80;99.90;;;6.43;73.85;98982.88;4865915;28;20460;-81
2021/05/05 07:29:22;;;;;;;1.45;0.57;;;7.90;99.90;;;6.55;73.83;98994.41;4844426;28;20094;-83
2021/05/05 07:31:46;;;;;;;1.77;0.68;;;7.90;99.90;;;6.60;73.61;98989.75;4841151;28;20128;-81
2021/05/05 07:34:09;;;;;;;9.95;0.50;;;8.10;99.90;;;6.77;72.64;98994.84;4842978;28;20089;-81
2021/05/05 07:36:32;;;;;;;0.80;0.30;;;8.20;99.90;;;6.90;71.92;98994.13;4839876;28;20144;-83
2021/05/05 07:39:34;;;;;;;0.32;0.25;;;8.30;99.90;;;6.95;70.93;99000.78;4836769;28;20086;-80
2021/05/05 07:42:33;;;;;;;1.65;0.50;;;8.40;99.90;;;7.07;70.48;98993.97;4841128;28;20181;-82
2021/05/05 07:47:36;;;;;;;0.77;0.20;;;8.50;99.90;;;7.09;70.16;98999.13;4823032;28;20563;-80
2021/05/05 07:50:00;;;;;;;2.30;0.77;;;8.30;99.90;;;6.97;70.12;99004.13;4824739;28;20094;-83
2021/05/05 07:52:23;;;;;;;1.35;0.32;;;8.30;99.90;;;6.95;70.61;98999.94;4823412;28;20450;-80
2021/05/05 07:54:46;;;;;;;3.97;0.40;;;8.30;99.90;;;7.06;70.18;99005.38;4844034;28;20557;-77
2021/05/05 07:57:09;;;;;;;1.92;0.63;;;8.60;99.90;;;7.39;68.73;98993.81;4841027;28;20457;-78
2021/05/05 07:59:32;;;;;;;3.22;1.02;;;8.70;99.90;;;7.37;69.23;98999.13;4844904;28;20093;-76
2021/05/05 08:01:56;;;;;;;3.58;0.25;;;;;;;7.28;69.07;99023.25;4840385;28;20105;-83
2021/05/05 08:04:19;;;;;;;0.50;0.20;;;8.50;99.90;;;7.16;69.09;99016.97;4844374;28;20167;-81
2021/05/05 08:06:42;;;;;;;2.33;0.38;;;8.40;99.90;;;7.14;69.95;99010.16;4838134;28;20105;-81
2021/05/05 08:09:05;;;;;;;0.20;0.20;;;8.50;99.90;;;7.24;70.28;99013.06;4838894;28;20081;-83
2021/05/05 08:11:28;;;;;;;1.02;0.28;;;8.50;99.90;;;7.26;70.19;99016.44;4839125;28;20097;-83
2021/05/05 08:13:53;;;;;;;4.18;0.55;;;8.60;99.90;;;7.38;70.51;99011.28;4844585;28;20086;-85
2021/05/05 08:16:17;;;;;;;1.13;0.30;;;8.70;99.90;;;7.40;69.86;99017.25;4843768;28;20090;-80
2021/05/05 08:18:41;;;;;;;0.57;0.30;;;8.50;99.90;;;7.15;69.35;99009.22;4844321;28;20089;-81
2021/05/05 08:21:07;;;;;;;0.65;0.30;;;8.50;99.90;;;7.13;69.78;99016.31;4838419;28;20094;-82
2021/05/05 08:23:30;;;;;;;1.98;0.45;;;8.50;99.90;;;7.17;70.56;99008.19;4839825;28;20093;-81
2021/05/05 08:25:53;;;;;;;1.35;0.50;;;8.50;99.90;;;7.14;69.21;99013.59;4843038;28;20094;-81
2021/05/05 08:28:16;;;;;;;2.30;0.40;;;8.40;99.90;;;6.98;69.85;99015.47;4843008;28;20081;-83
2021/05/05 08:30:39;;;;;;;4.55;0.40;;;8.60;99.90;;;7.50;68.93;98999.22;4842971;28;20098;-80
2021/05/05 08:33:03;;;;;;;1.00;0.32;;;8.70;99.90;;;7.39;69.33;99017.38;4842567;28;20101;-85
2021/05/05 08:35:28;;;;;;;1.23;0.52;;;8.60;99.90;;;7.31;70.51;99009.13;4837696;28;20086;-83
2021/05/05 08:37:52;;;;;;;3.10;0.30;;;9.20;99.90;;;8.38;67.41;98994.53;4843024;28;20551;-86
2021/05/05 08:40:15;;;;;;;2.05;0.52;;;;;;;8.95;65.25;98992.59;4838558;28;20172;-82
2021/05/05 08:42:39;;;;;;;1.50;0.70;;;10.10;99.90;;;10.06;61.67;98993.59;4869417;28;20496;-84
2021/05/05 08:45:03;;;;;;;1.17;0.60;;;10.00;99.90;;;9.41;62.92;98987.63;4841137;28;20081;-77
2021/05/05 08:47:26;;;;;;;4.22;0.57;;;10.20;99.90;;;9.80;61.79;98991.03;4844000;28;20093;-82
2021/05/05 08:49:49;;;;;;;0.47;0.25;;;10.70;99.90;;;10.14;60.87;98995.69;4846703;28;20090;-82
2021/05/05 08:52:13;;;;;;;3.22;0.70;;;10.50;99.90;;;9.72;63.67;98997.78;4850029;28;20085;-81
2021/05/05 08:54:36;;;;;;;0.40;0.40;;;10.40;99.90;;;9.43;63.49;98985.75;4844841;28;20080;-81
2021/05/05 08:56:59;;;;;;;1.13;0.50;;;10.00;99.90;;;8.99;64.36;98994.06;4847188;28;20091;-82
2021/05/05 08:59:22;;;;;;;0.85;0.45;;;9.60;99.90;;;8.46;65.62;98988.81;4846387;28;20093;-81
2021/05/05 09:01:58;;;;;;;0.73;0.25;;;9.50;99.90;;;8.38;66.28;99005.03;4816988;28;20437;-82
2021/05/05 09:04:36;;;;;;;1.58;0.43;;;9.60;99.90;;;8.65;65.44;98993.69;4785081;28;20087;-78
2021/05/05 09:07:37;;;;;;;2.47;1.00;;;9.90;99.90;;;8.81;63.30;98985.63;4779528;28;20089;-82
2021/05/05 09:10:18;;;;;;;4.70;0.98;;;9.50;99.90;;;8.51;66.91;98993.75;4788476;28;20560;-82
2021/05/05 09:13:23;;;;;;;2.60;0.45;;;9.70;99.90;;;8.72;66.03;98992.34;4780601;28;20092;-84
2021/05/05 09:16:14;;;;;;;4.57;0.70;;;9.60;99.90;;;8.50;65.54;98999.94;4766588;28;20188;-82
2021/05/05 09:19:06;;;;;;;1.83;0.45;;;9.50;99.90;;;8.34;65.72;99008.78;4770917;28;20096;-82
2021/05/05 09:22:00;;;;;;;4.03;0.50;;;9.50;99.90;;;8.39;64.83;98995.38;4794670;28;20104;-84
2021/05/05 09:24:41;;;;;;;1.42;0.43;;;9.60;99.90;;;8.57;66.28;99009.09;4775258;28;20536;-82
2021/05/05 09:27:51;;;;;;;2.85;0.55;;;9.50;99.90;;;8.38;67.93;98999.78;4785659;28;20551;-81
2021/05/05 09:30:26;;;;;;;8.65;3.75;;;9.50;99.90;;;8.40;65.94;99000.56;4777370;28;20093;-82
2021/05/05 09:33:48;;;;;;;4.45;2.30;;;9.50;99.90;;;8.40;64.71;98978.69;4768067;28;20100;-80
2021/05/05 09:44:09;;;;;;;3.55;0.50;;;10.50;99.90;;;9.24;60.11;98994.09;4778302;28;20078;-80
2021/05/05 09:47:22;;;;;;;4.60;1.02;;;10.20;99.90;;;8.96;61.38;99002.13;4757386;28;20510;-81
2021/05/05 09:50:02;;;;;;;2.90;0.50;;;10.00;99.90;;;8.88;63.63;98999.22;4781981;28;20158;-81
2021/05/05 09:52:29;;;;;;;2.85;1.13;;;10.10;99.90;;;8.99;62.84;98992.28;4782945;28;20138;-81
2021/05/05 09:55:06;;;;;;;3.97;1.23;;;10.10;99.90;;;9.16;62.24;98991.13;4780930;28;20081;-81
2021/05/05 09:57:51;;;;;;;5.50;0.95;;;10.30;99.90;;;9.18;62.31;98993.66;4788813;28;20739;-83
2021/05/05 10:00:28;;;;;;;2.78;0.75;;;10.10;99.90;;;8.85;61.26;98983.66;4785994;28;20093;-80
2021/05/05 10:03:05;;;;;;;6.97;1.38;;;;;;;8.91;62.31;98983.25;4780034;28;20850;-80
2021/05/05 10:05:34;;;;;;;2.33;0.65;;;10.00;99.90;;;8.87;62.24;98998.34;4795541;28;20087;-82
2021/05/05 10:08:01;;;;;;;1.35;0.35;;;9.90;99.90;;;8.72;62.19;98983.63;4782781;28;20528;-82
2021/05/05 10:10:33;;;;;;;1.80;0.50;;;9.90;99.90;;;8.79;64.16;99005.88;4787873;28;20100;-81
2021/05/05 10:13:18;;;;;;;2.17;1.00;;;10.00;99.90;;;8.75;62.23;98993.94;4784751;28;20089;-82
2021/05/05 10:15:50;;;;;;;3.50;0.73;;;9.90;99.90;;;8.71;63.38;99000.31;4772789;28;20091;-83
2021/05/05 10:18:36;;;;;;;2.28;0.70;;;9.80;99.90;;;8.54;65.01;99011.94;4774428;28;20098;-83
2021/05/05 10:21:01;;;;;;;3.83;1.37;;;9.60;99.90;;;8.26;63.90;99016.31;4805001;28;20085;-80
2021/05/05 10:23:52;;;;;;;6.40;1.40;;;9.40;99.90;;;8.03;66.20;99017.75;4788372;28;20086;-83
2021/05/05 10:26:33;;;;;;;5.78;1.23;;;9.20;99.90;;;7.81;67.04;99034.84;4790015;28;20591;-81
2021/05/05 10:29:13;;;;;;;4.78;0.95;;;9.10;99.90;;;7.75;69.23;99035.25;4801769;28;20542;-82
2021/05/05 10:31:55;;;;;;;2.15;0.80;;;9.00;99.90;;;7.68;69.40;99046.19;4772985;28;20105;-80
2021/05/05 10:34:21;;;;;;;9.68;1.02;;;;;;;7.46;70.01;99065.81;4778345;28;20273;-83
2021/05/05 10:36:56;;;;;;;11.88;1.55;;;8.70;99.90;;;7.27;75.88;99087.00;4791936;28;20090;-82
2021/05/05 10:43:08;;;;;;;4.88;0.80;;;7.50;99.90;;;6.18;85.92;99102.78;4783361;28;20082;-82
2021/05/05 10:53:30;;;;;;;1.33;0.80;;;7.90;99.90;;;6.54;82.88;99097.31;4763634;28;20082;-83
2021/05/05 10:56:00;;;;;;;;;;;7.90;99.90;;;6.70;83.84;99094.69;4786552;28;20283;-82